Time;durP1;ratioP1;P1;durP2;ratioP2;P2;SDS_P1;SDS_P2;PMS_P1;PMS_P2;Temp;Humidity;BMP_temperature;BMP_pressure;BME280_temperature;BME280_humidity;BME280_pressure;Samples;Min_cycle;Max_cycle;Signal;HPM_P1;HPM_P2
2021/04/27 00:00:15;;;;;;;3.15;1.80;;;16.20;63.90;;;;;;20750201;28;20157;-52
2021/04/27 00:10:19;;;;;;;4.03;1.48;;;16.20;63.70;;;;;;20749717;28;20132;-51
2021/04/27 00:20:23;;;;;;;3.87;1.57;;;16.00;63.70;;;;;;20749148;28;20125;-52
2021/04/27 00:30:28;;;;;;;2.72;1.55;;;15.90;64.10;;;;;;20748533;28;20058;-53
2021/04/27 00:40:31;;;;;;;2.63;1.60;;;15.90;64.50;;;;;;20748343;28;20425;-53
2021/04/27 00:50:37;;;;;;;3.85;2.00;;;15.70;65.20;;;;;;20747353;28;20057;-53
2021/04/27 01:00:41;;;;;;;10.30;3.08;;;15.60;66.00;;;;;;20746489;28;20405;-52
2021/04/27 01:10:46;;;;;;;6.55;3.20;;;15.40;67.20;;;;;;20745815;28;20093;-52
2021/04/27 01:20:50;;;;;;;4.70;3.30;;;15.30;68.60;;;;;;20745405;28;20050;-52
2021/04/27 01:30:53;;;;;;;6.90;3.65;;;15.20;69.40;;;;;;20750855;28;20061;-52
2021/04/27 01:40:56;;;;;;;6.00;3.90;;;15.10;70.00;;;;;;20758698;28;20104;-53
2021/04/27 01:51:00;;;;;;;7.50;4.00;;;15.10;70.30;;;;;;20758535;28;20111;-50
2021/04/27 02:01:09;;;;;;;7.80;3.58;;;15.00;70.60;;;;;;20758680;28;20112;-51
2021/04/27 02:11:16;;;;;;;6.32;3.97;;;14.90;70.80;;;;;;20757831;28;20104;-50
2021/04/27 02:21:20;;;;;;;;;;;14.80;71.20;;;;;;20757168;28;20057;-52
2021/04/27 02:31:25;;;;;;;6.73;4.00;;;14.70;71.00;;;;;;20755019;28;19922;-52
2021/04/27 02:41:30;;;;;;;9.45;5.20;;;14.70;71.60;;;;;;20754388;28;20056;-50
2021/04/27 02:51:34;;;;;;;6.10;4.15;;;14.60;71.80;;;;;;20754369;28;20064;-52
2021/04/27 03:01:37;;;;;;;7.80;3.97;;;14.50;72.10;;;;;;20754200;28;20115;-51
2021/04/27 03:11:54;;;;;;;6.88;5.00;;;14.40;72.50;;;;;;20752123;28;20141;-51
2021/04/27 03:22:02;;;;;;;10.95;4.85;;;14.40;72.20;;;;;;20751465;28;20042;-51
2021/04/27 03:32:05;;;;;;;7.10;4.85;;;14.30;72.70;;;;;;20750640;28;20057;-51
2021/04/27 03:42:09;;;;;;;7.43;4.00;;;14.30;72.40;;;;;;20750861;28;20100;-51
2021/04/27 03:52:13;;;;;;;6.05;5.00;;;14.20;72.60;;;;;;20748992;28;20081;-52
2021/04/27 04:02:16;;;;;;;8.95;5.13;;;14.20;73.10;;;;;;20749185;28;20053;-52
2021/04/27 04:12:19;;;;;;;9.93;6.05;;;14.10;73.40;;;;;;20747985;28;20081;-53
2021/04/27 04:22:22;;;;;;;8.38;5.28;;;14.00;73.80;;;;;;20749237;28;20546;-52
2021/04/27 04:32:24;;;;;;;9.65;5.53;;;14.00;73.60;;;;;;20748131;28;20525;-53
2021/04/27 04:42:28;;;;;;;13.50;6.23;;;13.90;74.00;;;;;;20748543;28;20082;-51
2021/04/27 04:52:38;;;;;;;9.57;6.20;;;13.80;73.90;;;;;;20746397;28;20053;-52
2021/04/27 05:02:40;;;;;;;13.07;6.80;;;13.70;74.40;;;;;;20746944;28;20057;-52
2021/04/27 05:12:43;;;;;;;13.82;5.68;;;13.70;74.40;;;;;;20761856;28;20045;-52
2021/04/27 05:22:46;;;;;;;9.52;5.40;;;13.80;74.30;;;;;;20760938;28;20107;-52
2021/04/27 05:32:48;;;;;;;9.48;5.68;;;13.80;74.20;;;;;;20760139;28;20057;-52
2021/04/27 05:42:51;;;;;;;9.73;5.30;;;13.90;74.10;;;;;;20760637;28;20060;-51
2021/04/27 05:52:54;;;;;;;9.38;4.97;;;13.90;74.00;;;;;;20759839;28;20058;-51
2021/04/27 06:02:56;;;;;;;11.50;8.35;;;14.00;74.00;;;;;;20774073;28;20061;-52
2021/04/27 06:12:58;;;;;;;9.93;6.15;;;14.10;73.70;;;;;;20757523;28;20076;-52
2021/04/27 06:23:00;;;;;;;10.57;6.47;;;14.20;73.60;;;;;;20756744;28;20054;-51
2021/04/27 06:33:03;;;;;;;14.70;8.45;;;14.20;73.00;;;;;;20755943;28;20061;-52
2021/04/27 06:43:07;;;;;;;17.08;8.35;;;14.20;72.90;;;;;;20755720;28;20167;-52
2021/04/27 06:53:15;;;;;;;11.13;6.07;;;14.30;72.90;;;;;;20752909;28;20050;-51
2021/04/27 07:03:37;;;;;;;10.63;6.57;;;14.40;72.60;;;;;;20753969;28;20054;-52
2021/04/27 07:13:43;;;;;;;13.88;6.50;;;14.40;72.50;;;;;;20752495;28;20108;-51
2021/04/27 07:23:49;;;;;;;12.43;7.32;;;14.50;72.40;;;;;;20752165;28;20562;-51
2021/04/27 07:33:55;;;;;;;12.70;7.72;;;14.60;72.20;;;;;;20750552;28;20050;-52
2021/04/27 07:44:07;;;;;;;12.95;7.90;;;14.70;71.90;;;;;;20751960;28;20050;-52
2021/04/27 07:54:18;;;;;;;13.18;7.45;;;15.00;71.30;;;;;;20749911;28;20081;-53
2021/04/27 08:04:31;;;;;;;12.85;7.55;;;15.10;70.40;;;;;;20750712;28;20132;-51
2021/04/27 08:14:46;;;;;;;13.93;8.35;;;15.20;70.00;;;;;;20749315;28;20494;-52
2021/04/27 08:24:57;;;;;;;14.15;8.80;;;15.20;70.00;;;;;;20749869;28;20484;-53
2021/04/27 08:35:05;;;;;;;12.63;8.30;;;15.20;70.20;;;;;;20762998;28;20049;-52
2021/04/27 08:45:22;;;;;;;13.65;8.82;;;15.40;69.50;;;;;;20762232;28;20482;-52
2021/04/27 08:55:43;;;;;;;17.48;9.60;;;15.60;68.50;;;;;;20762344;28;20063;-52
2021/04/27 09:06:15;;;;;;;14.77;8.93;;;15.90;68.00;;;;;;20762262;28;20049;-53
2021/04/27 09:16:26;;;;;;;15.02;9.10;;;16.20;66.40;;;;;;20761847;28;20064;-53
2021/04/27 09:26:40;;;;;;;11.32;8.23;;;16.50;65.70;;;;;;20762431;28;20049;-53
2021/04/27 09:36:50;;;;;;;10.07;7.60;;;16.70;64.40;;;;;;20760543;28;20505;-53
2021/04/27 09:47:16;;;;;;;5.13;3.33;;;17.00;64.30;;;;;;20759705;28;20112;-50
2021/04/27 09:57:29;;;;;;;7.50;4.50;;;17.70;61.10;;;;;;20759183;28;20057;-50
2021/04/27 10:07:35;;;;;;;7.47;6.30;;;18.10;60.50;;;;;;20759125;28;20494;-50
2021/04/27 10:17:38;;;;;;;8.83;5.97;;;18.40;59.10;;;;;;20756243;28;20303;-49
2021/04/27 10:27:43;;;;;;;8.45;5.43;;;18.70;58.20;;;;;;20757407;28;20435;-49
2021/04/27 10:38:00;;;;;;;10.57;6.13;;;19.00;57.80;;;;;;20756618;28;20069;-53
2021/04/27 10:48:03;;;;;;;11.60;6.88;;;19.40;56.30;;;;;;20756714;28;20057;-50
2021/04/27 10:58:07;;;;;;;9.63;5.90;;;19.50;55.80;;;;;;20756635;28;20054;-52
2021/04/27 11:08:12;;;;;;;86.30;22.33;;;19.70;54.30;;;;;;20753129;28;20061;-53
2021/04/27 11:18:17;;;;;;;41.28;12.32;;;19.80;54.00;;;;;;20752421;28;20053;-51
2021/04/27 11:28:51;;;;;;;13.27;5.90;;;20.00;53.00;;;;;;20752981;28;20104;-54
2021/04/27 11:38:54;;;;;;;;;;;20.20;52.00;;;;;;20751341;28;20054;-51
2021/04/27 11:48:58;;;;;;;12.97;7.60;;;20.00;50.50;;;;;;20749181;28;19932;-51
2021/04/27 11:59:06;;;;;;;10.05;4.28;;;19.80;52.10;;;;;;20748821;28;20137;-50
2021/04/27 12:09:11;;;;;;;5.95;3.17;;;20.00;51.40;;;;;;20749574;28;20402;-51
2021/04/27 12:19:19;;;;;;;5.70;3.42;;;20.20;49.80;;;;;;20747710;28;20141;-51
2021/04/27 12:29:30;;;;;;;5.20;3.58;;;20.20;49.50;;;;;;20749314;28;20479;-53
2021/04/27 12:39:35;;;;;;;7.60;3.90;;;20.60;49.00;;;;;;20747901;28;20108;-52
2021/04/27 12:49:37;;;;;;;3.97;2.50;;;20.60;48.70;;;;;;20748596;28;20050;-54
2021/04/27 12:59:41;;;;;;;6.53;3.15;;;20.70;48.10;;;;;;20745135;28;20490;-51
2021/04/27 13:09:44;;;;;;;6.82;3.80;;;20.60;48.50;;;;;;20747142;28;20494;-52
2021/04/27 13:19:59;;;;;;;4.82;2.15;;;20.90;46.90;;;;;;20746541;28;20069;-52
2021/04/27 13:30:14;;;;;;;5.05;2.55;;;20.90;46.70;;;;;;20757363;28;20061;-54
2021/04/27 13:40:20;;;;;;;9.43;2.78;;;21.00;46.90;;;;;;20761158;28;20054;-51
2021/04/27 13:50:23;;;;;;;6.03;2.13;;;21.20;47.70;;;;;;20759143;28;20053;-53
2021/04/27 14:00:28;;;;;;;5.22;2.70;;;21.30;47.70;;;;;;20760061;28;20046;-50
2021/04/27 14:10:31;;;;;;;6.63;4.20;;;21.50;46.90;;;;;;20758289;28;20041;-54
2021/04/27 14:20:34;;;;;;;2.92;1.70;;;21.40;46.90;;;;;;20758719;28;20054;-53
2021/04/27 14:30:38;;;;;;;3.33;1.70;;;21.40;46.70;;;;;;20756472;28;20107;-52
2021/04/27 14:40:42;;;;;;;3.80;1.65;;;21.30;46.40;;;;;;20756301;28;20517;-52
2021/04/27 14:50:44;;;;;;;10.80;2.07;;;21.20;46.80;;;;;;20756108;28;20054;-54
2021/04/27 15:00:48;;;;;;;5.07;1.60;;;21.10;47.20;;;;;;20755460;28;20056;-52
2021/04/27 15:10:52;;;;;;;4.38;1.52;;;20.90;48.20;;;;;;20753421;28;20490;-53
2021/04/27 15:20:54;;;;;;;5.27;2.90;;;20.70;48.80;;;;;;20752654;28;20402;-53
2021/04/27 15:30:59;;;;;;;10.05;3.97;;;20.20;56.00;;;;;;20752444;28;20292;-52
2021/04/27 15:41:01;;;;;;;9.50;3.75;;;19.60;59.00;;;;;;20751274;28;20133;-51
2021/04/27 15:51:04;;;;;;;4.40;2.20;;;18.90;59.20;;;;;;20720942;28;20074;-48
2021/04/27 16:01:08;;;;;;;5.68;2.95;;;18.70;60.40;;;;;;20707314;28;20042;-51
2021/04/27 16:11:11;;;;;;;7.68;3.00;;;18.30;62.20;;;;;;20670737;28;20491;-49
2021/04/27 16:21:14;;;;;;;6.70;3.63;;;18.40;63.30;;;;;;20704136;28;20046;-54
2021/04/27 16:31:16;;;;;;;11.38;3.88;;;18.40;62.80;;;;;;20698944;28;20046;-51
2021/04/27 16:41:18;;;;;;;5.57;3.90;;;18.50;63.00;;;;;;20705585;28;20050;-52
2021/04/27 16:51:20;;;;;;;5.47;3.35;;;18.70;63.50;;;;;;20747681;28;20053;-52
2021/04/27 17:01:24;;;;;;;7.78;2.38;;;18.50;65.10;;;;;;20752901;28;20054;-51
2021/04/27 17:11:26;;;;;;;5.28;3.33;;;18.40;64.30;;;;;;20762826;28;20513;-52
2021/04/27 17:21:29;;;;;;;5.30;2.20;;;18.20;63.90;;;;;;20762901;28;20397;-52
2021/04/27 17:31:34;;;;;;;6.50;1.60;;;18.00;63.90;;;;;;20760594;28;20050;-54
2021/04/27 17:41:36;;;;;;;3.47;1.67;;;17.90;61.90;;;;;;20759969;28;20046;-56
2021/04/27 17:51:39;;;;;;;3.70;1.50;;;17.70;61.40;;;;;;20759865;28;20114;-53
2021/04/27 18:01:41;;;;;;;3.05;1.52;;;17.70;61.50;;;;;;20759733;28;20123;-53
2021/04/27 18:11:44;;;;;;;2.13;1.02;;;17.70;62.40;;;;;;20757764;28;20139;-53
2021/04/27 18:21:46;;;;;;;3.90;2.25;;;17.80;60.20;;;;;;20757864;28;20192;-53
2021/04/27 18:31:49;;;;;;;4.05;1.85;;;17.70;59.70;;;;;;20757105;28;20068;-53
2021/04/27 18:41:51;;;;;;;3.70;1.63;;;17.70;60.40;;;;;;20755805;28;20054;-53
2021/04/27 18:51:54;;;;;;;4.77;1.63;;;17.70;58.80;;;;;;20755540;28;20189;-53
2021/04/27 19:01:56;;;;;;;2.60;1.50;;;17.70;59.30;;;;;;20756975;28;20050;-52
2021/04/27 19:11:59;;;;;;;2.93;1.67;;;17.60;60.30;;;;;;20753655;28;20565;-53
2021/04/27 19:22:01;;;;;;;4.28;2.53;;;17.50;61.90;;;;;;20752712;28;20062;-52
2021/04/27 19:32:04;;;;;;;4.25;1.83;;;17.40;63.10;;;;;;20752158;28;20136;-51
2021/04/27 19:42:07;;;;;;;5.82;3.17;;;17.30;64.20;;;;;;20751001;28;20050;-51
2021/04/27 19:52:09;;;;;;;6.90;2.40;;;17.20;65.30;;;;;;20750523;28;20054;-51
2021/04/27 20:02:24;;;;;;;5.13;2.30;;;17.10;66.70;;;;;;20752071;28;20054;-52
2021/04/27 20:12:35;;;;;;;5.45;3.33;;;17.00;67.70;;;;;;20750815;28;20062;-52
2021/04/27 20:22:41;;;;;;;5.70;3.00;;;16.80;68.40;;;;;;20733418;28;20050;-57
2021/04/27 20:32:50;;;;;;;6.32;3.10;;;16.60;70.00;;;;;;20735104;28;20054;-52
2021/04/27 20:42:55;;;;;;;5.88;2.90;;;16.40;72.10;;;;;;20775891;28;20478;-52
2021/04/27 20:52:57;;;;;;;4.25;1.65;;;16.20;73.00;;;;;;20774164;28;20402;-52
2021/04/27 21:03:00;;;;;;;3.50;1.30;;;16.00;72.30;;;;;;20773423;28;20061;-52
2021/04/27 21:13:02;;;;;;;2.03;1.08;;;15.70;71.40;;;;;;20773663;28;20100;-50
2021/04/27 21:23:04;;;;;;;1.80;1.00;;;15.40;72.60;;;;;;20773830;28;20414;-50
2021/04/27 21:33:06;;;;;;;2.03;1.17;;;15.20;71.90;;;;;;20773254;28;20062;-50
2021/04/27 21:43:08;;;;;;;2.90;0.88;;;15.10;73.00;;;;;;20772465;28;20140;-54
2021/04/27 21:53:10;;;;;;;2.92;1.10;;;15.00;72.40;;;;;;20757587;28;20069;-51
2021/04/27 22:03:12;;;;;;;2.55;1.30;;;15.00;72.90;;;;;;20759301;28;20147;-49
2021/04/27 22:13:14;;;;;;;2.28;1.30;;;15.00;73.00;;;;;;20757934;28;20065;-51
2021/04/27 22:23:19;;;;;;;1.48;0.90;;;15.00;71.90;;;;;;20757477;28;20050;-54
2021/04/27 22:33:23;;;;;;;1.95;0.98;;;15.00;71.40;;;;;;20754839;28;20050;-50
2021/04/27 22:43:25;;;;;;;1.90;1.00;;;14.90;71.50;;;;;;20755884;28;20126;-51
2021/04/27 22:53:28;;;;;;;3.55;1.40;;;14.80;72.10;;;;;;20753188;28;20131;-53
2021/04/27 23:03:29;;;;;;;3.97;1.30;;;14.90;72.70;;;;;;20753122;28;20054;-50
2021/04/27 23:13:31;;;;;;;2.55;1.10;;;14.90;72.60;;;;;;20752710;28;20522;-51
2021/04/27 23:23:33;;;;;;;1.73;1.10;;;15.00;71.80;;;;;;20753091;28;20057;-49
2021/04/27 23:33:35;;;;;;;2.40;1.20;;;15.00;72.60;;;;;;20751787;28;20056;-50
2021/04/27 23:43:37;;;;;;;1.65;1.13;;;14.90;72.90;;;;;;20751505;28;20486;-51
2021/04/27 23:53:40;;;;;;;4.03;1.40;;;15.00;73.00;;;;;;20750305;28;20457;-51
